sensor_id;sensor_type;location;lat;lon;timestamp;temperature;humidity
75865;HTU21D;64510;46.704;38.274;2023-03-01T00:01:11;0.51;93.33
75865;HTU21D;64510;46.704;38.274;2023-03-01T00:03:37;0.62;93.37
75865;HTU21D;64510;46.704;38.274;2023-03-01T00:06:04;0.72;93.30
75865;HTU21D;64510;46.704;38.274;2023-03-01T00:08:30;0.84;93.22
75865;HTU21D;64510;46.704;38.274;2023-03-01T00:11:04;0.96;93.05
75865;HTU21D;64510;46.704;38.274;2023-03-01T00:13:31;1.02;92.79
75865;HTU21D;64510;46.704;38.274;2023-03-01T00:15:57;1.02;92.60
75865;HTU21D;64510;46.704;38.274;2023-03-01T00:18:23;1.03;92.49
75865;HTU21D;64510;46.704;38.274;2023-03-01T00:20:50;1.06;92.47
75865;HTU21D;64510;46.704;38.274;2023-03-01T00:23:16;1.08;92.47
75865;HTU21D;64510;46.704;38.274;2023-03-01T00:25:43;1.09;92.39
75865;HTU21D;64510;46.704;38.274;2023-03-01T00:28:09;1.10;92.35
75865;HTU21D;64510;46.704;38.274;2023-03-01T00:30:35;1.10;92.28
75865;HTU21D;64510;46.704;38.274;2023-03-01T00:33:00;1.12;92.21
75865;HTU21D;64510;46.704;38.274;2023-03-01T00:35:26;1.13;92.11
75865;HTU21D;64510;46.704;38.274;2023-03-01T00:37:52;1.07;92.10
75865;HTU21D;64510;46.704;38.274;2023-03-01T00:40:34;1.05;92.17
75865;HTU21D;64510;46.704;38.274;2023-03-01T00:43:00;1.06;91.91
75865;HTU21D;64510;46.704;38.274;2023-03-01T00:45:27;0.96;91.81
75865;HTU21D;64510;46.704;38.274;2023-03-01T00:47:53;0.89;91.91
75865;HTU21D;64510;46.704;38.274;2023-03-01T00:50:20;0.83;91.98
75865;HTU21D;64510;46.704;38.274;2023-03-01T00:52:46;0.81;91.81
75865;HTU21D;64510;46.704;38.274;2023-03-01T00:55:12;0.74;91.85
75865;HTU21D;64510;46.704;38.274;2023-03-01T00:57:39;0.76;91.76
75865;HTU21D;64510;46.704;38.274;2023-03-01T01:00:06;0.73;91.69
75865;HTU21D;64510;46.704;38.274;2023-03-01T01:02:33;0.67;91.74
75865;HTU21D;64510;46.704;38.274;2023-03-01T01:04:59;0.65;91.74
75865;HTU21D;64510;46.704;38.274;2023-03-01T01:07:26;0.64;91.82
75865;HTU21D;64510;46.704;38.274;2023-03-01T01:09:52;0.62;91.79
75865;HTU21D;64510;46.704;38.274;2023-03-01T01:12:17;0.57;91.77
75865;HTU21D;64510;46.704;38.274;2023-03-01T01:14:43;0.49;91.76
75865;HTU21D;64510;46.704;38.274;2023-03-01T01:17:09;0.46;91.76
75865;HTU21D;64510;46.704;38.274;2023-03-01T01:19:35;0.36;91.77
75865;HTU21D;64510;46.704;38.274;2023-03-01T01:22:02;0.31;91.81
75865;HTU21D;64510;46.704;38.274;2023-03-01T01:24:29;0.20;91.88
75865;HTU21D;64510;46.704;38.274;2023-03-01T01:26:55;0.14;91.97
75865;HTU21D;64510;46.704;38.274;2023-03-01T01:29:21;0.09;92.08
75865;HTU21D;64510;46.704;38.274;2023-03-01T01:31:48;0.06;92.07
75865;HTU21D;64510;46.704;38.274;2023-03-01T01:34:17;0.05;92.12
75865;HTU21D;64510;46.704;38.274;2023-03-01T01:36:43;0.06;92.06
75865;HTU21D;64510;46.704;38.274;2023-03-01T01:39:09;0.07;92.04
75865;HTU21D;64510;46.704;38.274;2023-03-01T01:41:40;0.07;92.08
75865;HTU21D;64510;46.704;38.274;2023-03-01T01:44:22;0.12;92.08
75865;HTU21D;64510;46.704;38.274;2023-03-01T01:52:20;0.17;91.93
75865;HTU21D;64510;46.704;38.274;2023-03-01T01:54:57;0.13;91.93
75865;HTU21D;64510;46.704;38.274;2023-03-01T01:57:36;0.09;91.87
75865;HTU21D;64510;46.704;38.274;2023-03-01T02:00:18;0.05;91.83
75865;HTU21D;64510;46.704;38.274;2023-03-01T02:02:46;0.03;91.88
75865;HTU21D;64510;46.704;38.274;2023-03-01T02:05:26;0.01;91.82
75865;HTU21D;64510;46.704;38.274;2023-03-01T02:07:54;-0.01;91.88
75865;HTU21D;64510;46.704;38.274;2023-03-01T02:10:22;-0.00;91.79
75865;HTU21D;64510;46.704;38.274;2023-03-01T02:12:49;-0.02;91.81
75865;HTU21D;64510;46.704;38.274;2023-03-01T02:15:15;-0.03;91.82
75865;HTU21D;64510;46.704;38.274;2023-03-01T02:17:41;-0.08;91.84
75865;HTU21D;64510;46.704;38.274;2023-03-01T02:20:23;-0.10;91.82
75865;HTU21D;64510;46.704;38.274;2023-03-01T02:22:52;-0.10;91.92
75865;HTU21D;64510;46.704;38.274;2023-03-01T02:30:46;-0.07;92.09
75865;HTU21D;64510;46.704;38.274;2023-03-01T02:33:33;-0.08;92.09
75865;HTU21D;64510;46.704;38.274;2023-03-01T02:36:03;-0.14;92.14
75865;HTU21D;64510;46.704;38.274;2023-03-01T02:38:31;-0.16;92.14
75865;HTU21D;64510;46.704;38.274;2023-03-01T02:40:57;-0.20;92.14
75865;HTU21D;64510;46.704;38.274;2023-03-01T02:43:29;-0.28;92.18
75865;HTU21D;64510;46.704;38.274;2023-03-01T02:46:02;-0.30;92.30
75865;HTU21D;64510;46.704;38.274;2023-03-01T02:48:48;-0.29;92.35
75865;HTU21D;64510;46.704;38.274;2023-03-01T02:52:24;-0.35;92.40
75865;HTU21D;64510;46.704;38.274;2023-03-01T02:54:34;-0.38;92.36
75865;HTU21D;64510;46.704;38.274;2023-03-01T02:57:03;-0.43;92.33
75865;HTU21D;64510;46.704;38.274;2023-03-01T02:59:33;-0.50;92.30
75865;HTU21D;64510;46.704;38.274;2023-03-01T03:02:07;-0.57;92.40
75865;HTU21D;64510;46.704;38.274;2023-03-01T03:04:46;-0.61;92.46
75865;HTU21D;64510;46.704;38.274;2023-03-01T03:07:12;-0.70;92.66
75865;HTU21D;64510;46.704;38.274;2023-03-01T03:09:38;-0.73;92.69
75865;HTU21D;64510;46.704;38.274;2023-03-01T03:12:04;-0.74;92.76
75865;HTU21D;64510;46.704;38.274;2023-03-01T03:14:30;-0.77;92.77
75865;HTU21D;64510;46.704;38.274;2023-03-01T03:17:00;-0.77;92.80
75865;HTU21D;64510;46.704;38.274;2023-03-01T03:19:26;-0.76;92.84
75865;HTU21D;64510;46.704;38.274;2023-03-01T03:21:52;-0.74;92.82
75865;HTU21D;64510;46.704;38.274;2023-03-01T03:24:18;-0.74;92.80
75865;HTU21D;64510;46.704;38.274;2023-03-01T03:26:44;-0.74;92.76
75865;HTU21D;64510;46.704;38.274;2023-03-01T03:29:09;-0.75;92.75
75865;HTU21D;64510;46.704;38.274;2023-03-01T03:31:35;-0.73;92.82
75865;HTU21D;64510;46.704;38.274;2023-03-01T03:34:01;-0.74;92.83
75865;HTU21D;64510;46.704;38.274;2023-03-01T03:36:27;-0.74;92.85
75865;HTU21D;64510;46.704;38.274;2023-03-01T03:38:53;-0.75;92.82
75865;HTU21D;64510;46.704;38.274;2023-03-01T03:41:19;-0.77;92.82
75865;HTU21D;64510;46.704;38.274;2023-03-01T03:43:45;-0.79;92.85
75865;HTU21D;64510;46.704;38.274;2023-03-01T03:46:12;-0.79;92.92
75865;HTU21D;64510;46.704;38.274;2023-03-01T03:48:40;-0.77;92.95
75865;HTU21D;64510;46.704;38.274;2023-03-01T03:51:06;-0.79;92.92
75865;HTU21D;64510;46.704;38.274;2023-03-01T03:53:35;-0.80;92.87
75865;HTU21D;64510;46.704;38.274;2023-03-01T03:56:01;-0.76;93.01
75865;HTU21D;64510;46.704;38.274;2023-03-01T03:58:27;-0.76;93.02
75865;HTU21D;64510;46.704;38.274;2023-03-01T04:00:55;-0.75;93.04
75865;HTU21D;64510;46.704;38.274;2023-03-01T04:03:22;-0.76;93.02
75865;HTU21D;64510;46.704;38.274;2023-03-01T04:05:51;-0.71;93.11
75865;HTU21D;64510;46.704;38.274;2023-03-01T04:08:21;-0.67;93.08
75865;HTU21D;64510;46.704;38.274;2023-03-01T04:10:50;-0.62;93.00
75865;HTU21D;64510;46.704;38.274;2023-03-01T04:13:19;-0.60;92.95
75865;HTU21D;64510;46.704;38.274;2023-03-01T04:15:47;-0.56;92.97
75865;HTU21D;64510;46.704;38.274;2023-03-01T04:18:14;-0.56;92.92
75865;HTU21D;64510;46.704;38.274;2023-03-01T04:20:41;-0.56;92.86
75865;HTU21D;64510;46.704;38.274;2023-03-01T04:23:11;-0.54;92.91
75865;HTU21D;64510;46.704;38.274;2023-03-01T04:25:53;-0.53;92.92
75865;HTU21D;64510;46.704;38.274;2023-03-01T04:28:21;-0.53;92.95
75865;HTU21D;64510;46.704;38.274;2023-03-01T04:30:47;-0.50;92.96
75865;HTU21D;64510;46.704;38.274;2023-03-01T04:33:13;-0.44;92.97
75865;HTU21D;64510;46.704;38.274;2023-03-01T04:35:39;-0.41;92.94
75865;HTU21D;64510;46.704;38.274;2023-03-01T04:38:05;-0.32;92.94
75865;HTU21D;64510;46.704;38.274;2023-03-01T04:40:32;-0.28;92.91
75865;HTU21D;64510;46.704;38.274;2023-03-01T04:42:58;-0.17;92.91
75865;HTU21D;64510;46.704;38.274;2023-03-01T04:45:24;-0.11;92.82
75865;HTU21D;64510;46.704;38.274;2023-03-01T04:47:50;-0.08;92.81
75865;HTU21D;64510;46.704;38.274;2023-03-01T04:50:18;-0.00;92.80
75865;HTU21D;64510;46.704;38.274;2023-03-01T04:52:49;0.08;92.82
75865;HTU21D;64510;46.704;38.274;2023-03-01T04:55:15;0.16;92.85
75865;HTU21D;64510;46.704;38.274;2023-03-01T04:57:41;0.29;92.96
75865;HTU21D;64510;46.704;38.274;2023-03-01T05:00:09;0.37;92.82
75865;HTU21D;64510;46.704;38.274;2023-03-01T05:05:33;0.65;92.99
75865;HTU21D;64510;46.704;38.274;2023-03-01T05:08:01;0.66;92.95
75865;HTU21D;64510;46.704;38.274;2023-03-01T05:10:29;0.71;92.99
75865;HTU21D;64510;46.704;38.274;2023-03-01T05:12:56;0.69;92.82
75865;HTU21D;64510;46.704;38.274;2023-03-01T05:15:26;0.62;92.72
75865;HTU21D;64510;46.704;38.274;2023-03-01T05:17:55;0.61;92.88
75865;HTU21D;64510;46.704;38.274;2023-03-01T05:20:21;0.76;93.19
75865;HTU21D;64510;46.704;38.274;2023-03-01T05:22:51;0.96;93.45
75865;HTU21D;64510;46.704;38.274;2023-03-01T05:25:17;1.18;93.58
75865;HTU21D;64510;46.704;38.274;2023-03-01T05:27:43;1.26;93.49
75865;HTU21D;64510;46.704;38.274;2023-03-01T05:30:10;1.54;93.82
75865;HTU21D;64510;46.704;38.274;2023-03-01T05:32:49;1.80;93.77
75865;HTU21D;64510;46.704;38.274;2023-03-01T05:35:17;1.97;93.60
75865;HTU21D;64510;46.704;38.274;2023-03-01T05:37:45;2.01;93.17
75865;HTU21D;64510;46.704;38.274;2023-03-01T05:40:16;2.12;93.14
75865;HTU21D;64510;46.704;38.274;2023-03-01T05:42:47;2.37;93.46
75865;HTU21D;64510;46.704;38.274;2023-03-01T05:45:14;2.59;93.39
75865;HTU21D;64510;46.704;38.274;2023-03-01T05:47:42;2.60;92.42
75865;HTU21D;64510;46.704;38.274;2023-03-01T05:50:15;2.66;92.55
75865;HTU21D;64510;46.704;38.274;2023-03-01T05:52:58;2.67;92.20
75865;HTU21D;64510;46.704;38.274;2023-03-01T05:55:25;2.64;91.89
75865;HTU21D;64510;46.704;38.274;2023-03-01T05:57:52;2.64;91.60
75865;HTU21D;64510;46.704;38.274;2023-03-01T06:00:19;2.45;91.09
75865;HTU21D;64510;46.704;38.274;2023-03-01T06:02:47;2.43;91.22
75865;HTU21D;64510;46.704;38.274;2023-03-01T06:05:14;2.53;91.83
75865;HTU21D;64510;46.704;38.274;2023-03-01T06:07:41;2.76;92.14
75865;HTU21D;64510;46.704;38.274;2023-03-01T06:10:08;2.98;92.12
75865;HTU21D;64510;46.704;38.274;2023-03-01T06:12:37;3.16;92.26
75865;HTU21D;64510;46.704;38.274;2023-03-01T06:15:04;3.29;92.36
75865;HTU21D;64510;46.704;38.274;2023-03-01T06:17:32;3.46;92.54
75865;HTU21D;64510;46.704;38.274;2023-03-01T06:20:01;3.56;92.30
75865;HTU21D;64510;46.704;38.274;2023-03-01T06:22:27;3.68;92.31
75865;HTU21D;64510;46.704;38.274;2023-03-01T06:24:52;3.72;91.89
75865;HTU21D;64510;46.704;38.274;2023-03-01T06:27:18;3.84;92.00
75865;HTU21D;64510;46.704;38.274;2023-03-01T06:29:44;4.02;92.02
75865;HTU21D;64510;46.704;38.274;2023-03-01T06:32:10;4.09;91.92
75865;HTU21D;64510;46.704;38.274;2023-03-01T06:34:36;4.09;91.30
75865;HTU21D;64510;46.704;38.274;2023-03-01T06:37:02;4.14;91.30
75865;HTU21D;64510;46.704;38.274;2023-03-01T06:39:31;4.18;91.02
75865;HTU21D;64510;46.704;38.274;2023-03-01T06:41:57;4.27;91.09
75865;HTU21D;64510;46.704;38.274;2023-03-01T06:44:23;4.36;90.47
75865;HTU21D;64510;46.704;38.274;2023-03-01T06:46:49;4.31;90.06
75865;HTU21D;64510;46.704;38.274;2023-03-01T06:49:15;4.33;90.02
75865;HTU21D;64510;46.704;38.274;2023-03-01T06:51:43;4.43;90.19
75865;HTU21D;64510;46.704;38.274;2023-03-01T06:54:10;4.52;89.65
75865;HTU21D;64510;46.704;38.274;2023-03-01T06:56:36;4.58;89.38
75865;HTU21D;64510;46.704;38.274;2023-03-01T06:59:02;4.72;88.94
75865;HTU21D;64510;46.704;38.274;2023-03-01T07:01:29;4.71;88.51
75865;HTU21D;64510;46.704;38.274;2023-03-01T07:03:55;4.69;88.18
75865;HTU21D;64510;46.704;38.274;2023-03-01T07:06:21;4.67;87.84
75865;HTU21D;64510;46.704;38.274;2023-03-01T07:08:48;4.71;88.07
75865;HTU21D;64510;46.704;38.274;2023-03-01T07:11:14;4.80;87.94
75865;HTU21D;64510;46.704;38.274;2023-03-01T07:13:40;4.91;87.88
75865;HTU21D;64510;46.704;38.274;2023-03-01T07:16:06;4.98;87.24
75865;HTU21D;64510;46.704;38.274;2023-03-01T07:18:32;4.84;86.28
75865;HTU21D;64510;46.704;38.274;2023-03-01T07:21:04;4.81;85.96
75865;HTU21D;64510;46.704;38.274;2023-03-01T07:23:30;4.77;85.43
75865;HTU21D;64510;46.704;38.274;2023-03-01T07:25:56;4.69;84.56
75865;HTU21D;64510;46.704;38.274;2023-03-01T07:28:24;4.65;84.13
75865;HTU21D;64510;46.704;38.274;2023-03-01T07:30:50;4.62;84.54
75865;HTU21D;64510;46.704;38.274;2023-03-01T07:33:16;4.67;84.62
75865;HTU21D;64510;46.704;38.274;2023-03-01T07:35:42;4.64;83.91
75865;HTU21D;64510;46.704;38.274;2023-03-01T07:38:08;4.59;83.19
75865;HTU21D;64510;46.704;38.274;2023-03-01T07:40:34;4.59;82.78
75865;HTU21D;64510;46.704;38.274;2023-03-01T07:43:00;4.51;82.10
75865;HTU21D;64510;46.704;38.274;2023-03-01T07:45:27;4.41;81.89
75865;HTU21D;64510;46.704;38.274;2023-03-01T07:47:54;4.29;81.69
75865;HTU21D;64510;46.704;38.274;2023-03-01T07:50:21;4.19;81.65
75865;HTU21D;64510;46.704;38.274;2023-03-01T07:52:48;4.15;81.58
75865;HTU21D;64510;46.704;38.274;2023-03-01T07:55:15;4.15;81.22
75865;HTU21D;64510;46.704;38.274;2023-03-01T07:57:42;3.98;81.26
75865;HTU21D;64510;46.704;38.274;2023-03-01T08:00:11;3.95;81.28
75865;HTU21D;64510;46.704;38.274;2023-03-01T08:02:40;3.89;81.10
75865;HTU21D;64510;46.704;38.274;2023-03-01T08:05:08;3.79;81.08
75865;HTU21D;64510;46.704;38.274;2023-03-01T08:07:35;3.64;81.23
75865;HTU21D;64510;46.704;38.274;2023-03-01T08:10:01;3.67;81.23
75865;HTU21D;64510;46.704;38.274;2023-03-01T08:12:28;3.67;81.04
75865;HTU21D;64510;46.704;38.274;2023-03-01T08:14:54;3.67;80.92
75865;HTU21D;64510;46.704;38.274;2023-03-01T08:17:20;3.73;80.90
75865;HTU21D;64510;46.704;38.274;2023-03-01T08:19:46;3.78;80.70
75865;HTU21D;64510;46.704;38.274;2023-03-01T08:22:12;3.79;80.49
75865;HTU21D;64510;46.704;38.274;2023-03-01T08:24:38;3.75;80.43
75865;HTU21D;64510;46.704;38.274;2023-03-01T08:27:04;3.71;80.56
75865;HTU21D;64510;46.704;38.274;2023-03-01T08:29:33;3.65;80.59
75865;HTU21D;64510;46.704;38.274;2023-03-01T08:31:59;3.69;80.69
75865;HTU21D;64510;46.704;38.274;2023-03-01T08:34:26;3.67;80.72
75865;HTU21D;64510;46.704;38.274;2023-03-01T08:36:52;3.75;80.67
75865;HTU21D;64510;46.704;38.274;2023-03-01T08:39:19;3.76;80.19
75865;HTU21D;64510;46.704;38.274;2023-03-01T08:41:46;3.67;80.02
75865;HTU21D;64510;46.704;38.274;2023-03-01T08:44:13;3.62;80.19
75865;HTU21D;64510;46.704;38.274;2023-03-01T08:46:42;3.64;80.03
75865;HTU21D;64510;46.704;38.274;2023-03-01T08:49:14;3.65;80.31
75865;HTU21D;64510;46.704;38.274;2023-03-01T08:51:41;3.69;80.33
75865;HTU21D;64510;46.704;38.274;2023-03-01T08:54:11;3.73;80.20
75865;HTU21D;64510;46.704;38.274;2023-03-01T08:56:37;3.76;80.22
75865;HTU21D;64510;46.704;38.274;2023-03-01T08:59:04;3.78;79.95
75865;HTU21D;64510;46.704;38.274;2023-03-01T09:01:30;3.78;79.97
75865;HTU21D;64510;46.704;38.274;2023-03-01T09:03:55;3.76;79.95
75865;HTU21D;64510;46.704;38.274;2023-03-01T09:06:21;3.77;79.90
75865;HTU21D;64510;46.704;38.274;2023-03-01T09:08:48;3.70;79.91
75865;HTU21D;64510;46.704;38.274;2023-03-01T09:11:19;3.65;80.15
75865;HTU21D;64510;46.704;38.274;2023-03-01T09:13:46;3.70;80.30
75865;HTU21D;64510;46.704;38.274;2023-03-01T09:16:13;3.76;79.67
75865;HTU21D;64510;46.704;38.274;2023-03-01T09:18:40;3.68;79.58
75865;HTU21D;64510;46.704;38.274;2023-03-01T09:21:08;3.62;79.55
75865;HTU21D;64510;46.704;38.274;2023-03-01T09:23:40;3.61;79.94
75865;HTU21D;64510;46.704;38.274;2023-03-01T09:26:07;3.65;79.87
75865;HTU21D;64510;46.704;38.274;2023-03-01T09:28:35;3.61;79.76
75865;HTU21D;64510;46.704;38.274;2023-03-01T09:31:02;3.55;80.02
75865;HTU21D;64510;46.704;38.274;2023-03-01T09:33:29;3.57;80.09
75865;HTU21D;64510;46.704;38.274;2023-03-01T09:36:00;3.60;80.03
75865;HTU21D;64510;46.704;38.274;2023-03-01T09:38:26;3.67;80.00
75865;HTU21D;64510;46.704;38.274;2023-03-01T09:40:52;3.67;79.86
75865;HTU21D;64510;46.704;38.274;2023-03-01T09:45:50;3.69;79.84
75865;HTU21D;64510;46.704;38.274;2023-03-01T09:48:20;3.65;79.74
75865;HTU21D;64510;46.704;38.274;2023-03-01T09:50:49;3.72;79.91
75865;HTU21D;64510;46.704;38.274;2023-03-01T09:53:18;3.72;79.73
75865;HTU21D;64510;46.704;38.274;2023-03-01T09:55:52;3.76;79.53
75865;HTU21D;64510;46.704;38.274;2023-03-01T10:04:00;3.82;79.50
75865;HTU21D;64510;46.704;38.274;2023-03-01T10:06:28;3.89;79.62
75865;HTU21D;64510;46.704;38.274;2023-03-01T10:09:14;4.04;79.26
75865;HTU21D;64510;46.704;38.274;2023-03-01T10:11:45;4.09;78.68
75865;HTU21D;64510;46.704;38.274;2023-03-01T10:14:29;4.10;78.41
75865;HTU21D;64510;46.704;38.274;2023-03-01T10:19:41;4.28;78.39
75865;HTU21D;64510;46.704;38.274;2023-03-01T10:22:13;4.42;78.01
75865;HTU21D;64510;46.704;38.274;2023-03-01T10:24:40;4.44;77.82
75865;HTU21D;64510;46.704;38.274;2023-03-01T10:27:17;4.50;77.59
75865;HTU21D;64510;46.704;38.274;2023-03-01T10:32:32;4.53;77.44
75865;HTU21D;64510;46.704;38.274;2023-03-01T10:34:58;4.61;77.07
75865;HTU21D;64510;46.704;38.274;2023-03-01T10:37:24;4.61;76.92
75865;HTU21D;64510;46.704;38.274;2023-03-01T10:42:32;4.72;77.00
75865;HTU21D;64510;46.704;38.274;2023-03-01T10:45:26;4.90;76.76
75865;HTU21D;64510;46.704;38.274;2023-03-01T10:48:22;5.07;76.22
75865;HTU21D;64510;46.704;38.274;2023-03-01T10:53:27;5.22;76.16
75865;HTU21D;64510;46.704;38.274;2023-03-01T10:56:09;5.23;75.92
75865;HTU21D;64510;46.704;38.274;2023-03-01T10:58:37;5.18;75.99
75865;HTU21D;64510;46.704;38.274;2023-03-01T11:01:04;5.15;75.98
75865;HTU21D;64510;46.704;38.274;2023-03-01T11:03:36;5.12;75.76
75865;HTU21D;64510;46.704;38.274;2023-03-01T11:08:41;5.20;75.88
75865;HTU21D;64510;46.704;38.274;2023-03-01T11:11:37;5.32;75.46
75865;HTU21D;64510;46.704;38.274;2023-03-01T11:14:14;5.36;75.66
75865;HTU21D;64510;46.704;38.274;2023-03-01T11:16:43;5.38;75.38
75865;HTU21D;64510;46.704;38.274;2023-03-01T11:21:42;5.38;75.50
75865;HTU21D;64510;46.704;38.274;2023-03-01T11:24:12;5.40;75.46
75865;HTU21D;64510;46.704;38.274;2023-03-01T11:26:47;5.52;75.34
75865;HTU21D;64510;46.704;38.274;2023-03-01T11:29:21;5.55;75.18
75865;HTU21D;64510;46.704;38.274;2023-03-01T11:31:51;5.51;75.12
75865;HTU21D;64510;46.704;38.274;2023-03-01T11:34:28;5.54;75.15
75865;HTU21D;64510;46.704;38.274;2023-03-01T11:37:01;5.56;75.30
75865;HTU21D;64510;46.704;38.274;2023-03-01T11:39:36;5.56;75.18
75865;HTU21D;64510;46.704;38.274;2023-03-01T11:42:12;5.52;74.97
75865;HTU21D;64510;46.704;38.274;2023-03-01T11:44:41;5.43;75.14
75865;HTU21D;64510;46.704;38.274;2023-03-01T11:55:24;5.56;74.78
75865;HTU21D;64510;46.704;38.274;2023-03-01T12:01:03;5.57;74.78
75865;HTU21D;64510;46.704;38.274;2023-03-01T12:09:17;5.52;74.79
75865;HTU21D;64510;46.704;38.274;2023-03-01T12:14:42;5.55;74.50
75865;HTU21D;64510;46.704;38.274;2023-03-01T12:22:44;5.62;74.19
75865;HTU21D;64510;46.704;38.274;2023-03-01T12:25:41;5.69;74.08
75865;HTU21D;64510;46.704;38.274;2023-03-01T12:31:16;5.91;73.53
75865;HTU21D;64510;46.704;38.274;2023-03-01T12:39:26;6.01;72.85
75865;HTU21D;64510;46.704;38.274;2023-03-01T12:42:20;5.98;72.88
75865;HTU21D;64510;46.704;38.274;2023-03-01T12:53:05;5.98;72.53
75865;HTU21D;64510;46.704;38.274;2023-03-01T12:55:36;6.02;72.40
75865;HTU21D;64510;46.704;38.274;2023-03-01T13:01:14;6.13;71.98
75865;HTU21D;64510;46.704;38.274;2023-03-01T13:12:00;6.23;71.73
75865;HTU21D;64510;46.704;38.274;2023-03-01T13:14:35;6.24;71.19
75865;HTU21D;64510;46.704;38.274;2023-03-01T13:17:01;6.22;71.47
75865;HTU21D;64510;46.704;38.274;2023-03-01T13:19:29;6.27;71.02
75865;HTU21D;64510;46.704;38.274;2023-03-01T13:21:55;6.27;71.10
75865;HTU21D;64510;46.704;38.274;2023-03-01T13:24:41;6.34;70.75
75865;HTU21D;64510;46.704;38.274;2023-03-01T13:29:53;6.12;69.94
75865;HTU21D;64510;46.704;38.274;2023-03-01T13:34:56;6.05;70.39
75865;HTU21D;64510;46.704;38.274;2023-03-01T13:37:30;5.99;70.18
75865;HTU21D;64510;46.704;38.274;2023-03-01T13:39:59;5.93;70.50
75865;HTU21D;64510;46.704;38.274;2023-03-01T13:42:38;5.95;70.48
75865;HTU21D;64510;46.704;38.274;2023-03-01T13:48:21;5.99;70.44
75865;HTU21D;64510;46.704;38.274;2023-03-01T13:50:47;5.92;70.68
75865;HTU21D;64510;46.704;38.274;2023-03-01T13:53:20;5.89;71.00
75865;HTU21D;64510;46.704;38.274;2023-03-01T13:55:49;5.85;71.16
75865;HTU21D;64510;46.704;38.274;2023-03-01T13:58:32;5.78;71.38
75865;HTU21D;64510;46.704;38.274;2023-03-01T14:01:06;5.78;71.49
75865;HTU21D;64510;46.704;38.274;2023-03-01T14:03:34;5.75;71.62
75865;HTU21D;64510;46.704;38.274;2023-03-01T14:06:09;5.70;71.71
75865;HTU21D;64510;46.704;38.274;2023-03-01T14:08:37;5.65;71.94
75865;HTU21D;64510;46.704;38.274;2023-03-01T14:11:26;5.54;72.19
75865;HTU21D;64510;46.704;38.274;2023-03-01T14:16:28;5.38;72.61
75865;HTU21D;64510;46.704;38.274;2023-03-01T14:19:14;5.31;72.78
75865;HTU21D;64510;46.704;38.274;2023-03-01T14:21:42;5.20;72.99
75865;HTU21D;64510;46.704;38.274;2023-03-01T14:24:20;5.11;73.24
75865;HTU21D;64510;46.704;38.274;2023-03-01T14:26:48;5.10;73.43
75865;HTU21D;64510;46.704;38.274;2023-03-01T14:29:37;5.05;73.49
75865;HTU21D;64510;46.704;38.274;2023-03-01T14:32:32;4.94;73.64
75865;HTU21D;64510;46.704;38.274;2023-03-01T14:35:00;4.81;73.80
75865;HTU21D;64510;46.704;38.274;2023-03-01T14:37:31;4.72;74.05
75865;HTU21D;64510;46.704;38.274;2023-03-01T14:39:58;4.64;74.24
75865;HTU21D;64510;46.704;38.274;2023-03-01T14:42:28;4.56;74.28
75865;HTU21D;64510;46.704;38.274;2023-03-01T14:44:56;4.45;74.51
75865;HTU21D;64510;46.704;38.274;2023-03-01T14:47:29;4.34;74.76
75865;HTU21D;64510;46.704;38.274;2023-03-01T14:49:59;4.22;74.99
75865;HTU21D;64510;46.704;38.274;2023-03-01T14:52:40;4.14;75.20
75865;HTU21D;64510;46.704;38.274;2023-03-01T14:55:19;4.05;75.35
75865;HTU21D;64510;46.704;38.274;2023-03-01T14:57:50;3.98;75.50
75865;HTU21D;64510;46.704;38.274;2023-03-01T15:00:23;3.89;75.67
75865;HTU21D;64510;46.704;38.274;2023-03-01T15:02:54;3.80;75.79
75865;HTU21D;64510;46.704;38.274;2023-03-01T15:05:34;3.71;75.98
75865;HTU21D;64510;46.704;38.274;2023-03-01T15:08:02;3.61;76.12
75865;HTU21D;64510;46.704;38.274;2023-03-01T15:10:34;3.53;76.30
75865;HTU21D;64510;46.704;38.274;2023-03-01T15:13:30;3.45;76.49
75865;HTU21D;64510;46.704;38.274;2023-03-01T15:18:32;3.24;76.76
75865;HTU21D;64510;46.704;38.274;2023-03-01T15:21:16;3.16;77.03
75865;HTU21D;64510;46.704;38.274;2023-03-01T15:23:49;3.08;77.11
75865;HTU21D;64510;46.704;38.274;2023-03-01T15:26:37;3.02;77.33
75865;HTU21D;64510;46.704;38.274;2023-03-01T15:29:04;2.95;77.31
75865;HTU21D;64510;46.704;38.274;2023-03-01T15:31:42;2.86;77.42
75865;HTU21D;64510;46.704;38.274;2023-03-01T15:34:35;2.82;77.64
75865;HTU21D;64510;46.704;38.274;2023-03-01T15:37:04;2.73;77.76
75865;HTU21D;64510;46.704;38.274;2023-03-01T15:39:41;2.68;77.82
75865;HTU21D;64510;46.704;38.274;2023-03-01T15:42:35;2.62;77.96
75865;HTU21D;64510;46.704;38.274;2023-03-01T15:48:13;2.59;78.13
75865;HTU21D;64510;46.704;38.274;2023-03-01T15:50:41;2.64;78.09
75865;HTU21D;64510;46.704;38.274;2023-03-01T15:53:13;2.67;78.17
75865;HTU21D;64510;46.704;38.274;2023-03-01T15:55:42;2.71;78.14
75865;HTU21D;64510;46.704;38.274;2023-03-01T15:58:34;2.80;78.33
75865;HTU21D;64510;46.704;38.274;2023-03-01T16:00:59;2.85;78.24
75865;HTU21D;64510;46.704;38.274;2023-03-01T16:03:26;2.95;78.27
75865;HTU21D;64510;46.704;38.274;2023-03-01T16:05:52;3.04;78.38
75865;HTU21D;64510;46.704;38.274;2023-03-01T16:08:19;3.19;78.72
75865;HTU21D;64510;46.704;38.274;2023-03-01T16:10:45;3.40;79.14
75865;HTU21D;64510;46.704;38.274;2023-03-01T16:13:12;3.61;79.27
75865;HTU21D;64510;46.704;38.274;2023-03-01T16:15:38;3.79;79.48
75865;HTU21D;64510;46.704;38.274;2023-03-01T16:18:06;3.99;79.82
75865;HTU21D;64510;46.704;38.274;2023-03-01T16:20:33;4.17;79.99
75865;HTU21D;64510;46.704;38.274;2023-03-01T16:23:01;4.31;80.29
75865;HTU21D;64510;46.704;38.274;2023-03-01T16:25:28;4.44;80.62
75865;HTU21D;64510;46.704;38.274;2023-03-01T16:27:54;4.56;80.85
75865;HTU21D;64510;46.704;38.274;2023-03-01T16:30:22;4.66;81.28
75865;HTU21D;64510;46.704;38.274;2023-03-01T16:32:49;4.76;81.63
75865;HTU21D;64510;46.704;38.274;2023-03-01T16:35:18;4.82;81.68
75865;HTU21D;64510;46.704;38.274;2023-03-01T16:37:46;4.91;81.90
75865;HTU21D;64510;46.704;38.274;2023-03-01T16:40:31;5.00;82.15
75865;HTU21D;64510;46.704;38.274;2023-03-01T16:42:58;5.07;82.26
75865;HTU21D;64510;46.704;38.274;2023-03-01T16:45:29;5.12;82.36
75865;HTU21D;64510;46.704;38.274;2023-03-01T16:47:58;5.16;82.43
75865;HTU21D;64510;46.704;38.274;2023-03-01T16:50:24;5.15;82.52
75865;HTU21D;64510;46.704;38.274;2023-03-01T16:52:50;5.18;82.77
75865;HTU21D;64510;46.704;38.274;2023-03-01T16:55:16;5.20;82.85
75865;HTU21D;64510;46.704;38.274;2023-03-01T16:57:43;5.19;83.06
75865;HTU21D;64510;46.704;38.274;2023-03-01T17:00:11;5.21;83.28
75865;HTU21D;64510;46.704;38.274;2023-03-01T17:02:39;5.23;83.45
75865;HTU21D;64510;46.704;38.274;2023-03-01T17:05:07;5.25;83.53
75865;HTU21D;64510;46.704;38.274;2023-03-01T17:07:34;5.28;83.67
75865;HTU21D;64510;46.704;38.274;2023-03-01T17:10:00;5.30;83.86
75865;HTU21D;64510;46.704;38.274;2023-03-01T17:12:27;5.32;83.99
75865;HTU21D;64510;46.704;38.274;2023-03-01T17:14:53;5.32;84.00
75865;HTU21D;64510;46.704;38.274;2023-03-01T17:17:19;5.30;83.99